Time,TemperatureF,DewpointF,PressureIn,WindDirection,WindDirectionDegrees,WindSpeedMPH,WindSpeedGustMPH,Humidity,HourlyPrecipIn,Conditions,Clouds,dailyrainin,SoftwareType,DateUTC
2013-05-01 00:00:00,57.6,54.7,30.14,WNW,292,1.0,8.0,90,0.00,,OVC,0.00,VWS V14.01,2013-05-01 04:00:00,
2013-05-01 01:00:00,56.5,53.9,30.16,West,270,2.0,10.0,91,0.00,,OVC,0.00,VWS V14.01,2013-05-01 05:00:00,
2013-05-01 02:00:00,55.5,52.9,30.15,NW,315,1.0,8.0,91,0.00,,OVC,0.00,VWS V14.01,2013-05-01 06:00:00,
2013-05-01 03:00:00,54.9,52.3,30.15,WNW,292,0.0,6.0,91,0.00,,OVC,0.00,VWS V14.01,2013-05-01 07:00:00,
2013-05-01 04:00:00,54.0,51.4,30.14,West,270,1.0,7.0,91,0.00,,OVC,0.00,VWS V14.01,2013-05-01 08:00:00,
2013-05-01 05:00:00,53.2,50.9,30.14,SSW,202,1.0,10.0,92,0.00,,OVC,0.00,VWS V14.01,2013-05-01 09:00:00,
2013-05-01 06:00:00,53.2,51.2,30.15,WSW,248,1.0,7.0,93,0.00,,OVC,0.00,VWS V14.01,2013-05-01 10:00:00,
2013-05-01 07:00:00,53.0,51.0,30.16,WNW,292,1.0,8.0,93,0.00,,OVC,0.00,VWS V14.01,2013-05-01 11:00:00,
2013-05-01 08:00:00,53.4,50.8,30.18,SW,225,1.0,9.0,91,0.00,,OVC,0.00,VWS V14.01,2013-05-01 12:00:00,
2013-05-01 09:00:00,53.3,50.7,30.20,SW,225,1.0,13.0,91,0.00,,OVC,0.00,VWS V14.01,2013-05-01 13:00:00,
2013-05-01 10:00:00,55.1,51.0,30.22,West,270,1.0,9.0,86,0.00,,OVC,0.00,VWS V14.01,2013-05-01 14:00:00,
2013-05-01 11:00:00,56.0,51.6,30.23,WSW,248,1.0,11.0,85,0.00,,OVC,0.00,VWS V14.01,2013-05-01 15:00:00,
2013-05-01 12:00:00,56.5,51.7,30.23,WSW,248,2.0,11.0,84,0.00,,OVC,0.00,VWS V14.01,2013-05-01 16:00:00,
2013-05-01 13:00:00,58.2,52.7,30.21,SW,225,1.0,8.0,82,0.00,,OVC,0.00,VWS V14.01,2013-05-01 17:00:00,
2013-05-01 14:00:00,59.5,53.0,30.22,WSW,248,1.0,10.0,79,0.00,,OVC,0.00,VWS V14.01,2013-05-01 18:00:00,
2013-05-01 15:00:00,59.9,53.0,30.23,West,270,1.0,7.0,78,0.00,,OVC,0.00,VWS V14.01,2013-05-01 19:00:00,
2013-05-01 16:00:00,61.4,53.4,30.20,West,270,2.0,13.0,75,0.00,,OVC,0.00,VWS V14.01,2013-05-01 20:00:00,
2013-05-01 17:00:00,60.2,53.0,30.20,SSW,202,2.0,13.0,77,0.00,,OVC,0.00,VWS V14.01,2013-05-01 21:00:00,
2013-05-01 18:00:00,59.5,53.0,30.21,WNW,292,1.0,8.0,79,0.00,,OVC,0.00,VWS V14.01,2013-05-01 22:00:00,
2013-05-01 19:00:00,58.1,53.0,30.20,West,270,1.0,8.0,83,0.00,,OVC,0.00,VWS V14.01,2013-05-01 23:00:00,
2013-05-01 20:00:00,56.7,53.2,30.20,West,270,1.0,10.0,88,0.00,,OVC,0.00,VWS V14.01,2013-05-02 00:00:00,
2013-05-01 21:00:00,56.0,53.1,30.22,SSW,202,2.0,9.0,90,0.00,,OVC,0.00,VWS V14.01,2013-05-02 01:00:00,
2013-05-01 22:00:00,55.3,53.3,30.24,NW,315,1.0,10.0,93,0.00,,OVC,0.00,VWS V14.01,2013-05-02 02:00:00,
2013-05-01 23:00:00,54.6,53.2,30.25,West,270,1.0,12.0,95,0.00,,OVC,0.00,VWS V14.01,2013-05-02 03:00:00,